KGFA/GFA METAR and TAF weather

Enter ICAO airport designator
Station Type Date Time Source
KGFA METAR 2022/01/23 10:58 UTC NOAA

KGFA 231058Z AUTO 23015KT 10SM FEW230 02/M05 A3014 RMK AO2 SLP231 T00211048 $


Station Type Date Time Source
KGFA Decoded METAR 2022/01/23 10:58 UTC NOAA

Malmstrom Air Force Base, MT, United States (KGFA) 47-30N 111-11W
Jan 23, 2022 - 05:58 AM EST / 2022.01.23 1058 UTC
Wind: from the SW (230 degrees) at 17 MPH (15 KT):0
Visibility: 10 mile(s):0
Sky conditions: mostly clear
Temperature: 35.8 F (2.1 C)
Dew Point: 23.4 F (-4.8 C)
Relative Humidity: 60%
Pressure (altimeter): 30.14 in. Hg (1020 hPa)
ob: KGFA 231058Z AUTO 23015KT 10SM FEW230 02/M05 A3014 RMK AO2 SLP231 T00211048
cycle: 11

Station Type Date Time Source
KGFA TAF 2022/01/22 19:08 UTC NOAA

TAF KGFA 220003Z 2119/2301 VRB06KT 9999 BKN055 QNH3025INS
BECMG 2121/2122 24012G18KT 9999 SCT055 BKN120 QNH3020INS
BECMG 2200/2201 25012G18KT 9999 SCT120 QNH3025INS
BECMG 2206/2207 25012G18KT 9999 BKN050 OVC080 QNH3022INS TX04/2122Z TNM01/2206Z LAST NO
AMDS AFT 2200 NEXT 2411

Example: see airport list